Time;durP1;ratioP1;P1;durP2;ratioP2;P2;SDS_P1;SDS_P2;PMS_P1;PMS_P2;Temp;Humidity;BMP_temperature;BMP_pressure;BME280_temperature;BME280_humidity;BME280_pressure;Samples;Min_cycle;Max_cycle;Signal;HPM_P1;HPM_P2
2022/12/18 00:01:46;;;;;;;43.40;28.37;;;-1.20;99.90;;;;;;4942314;29;20074;-90
2022/12/18 00:04:22;;;;;;;44.17;27.70;;;-1.20;99.90;;;;;;4937886;29;20058;-91
2022/12/18 00:06:48;;;;;;;39.60;28.80;;;-1.40;99.90;;;;;;4952519;29;20038;-89
2022/12/18 00:09:14;;;;;;;47.40;30.43;;;-1.30;99.90;;;;;;4949480;29;20051;-91
2022/12/18 00:11:40;;;;;;;44.97;27.53;;;-1.20;99.90;;;;;;4955038;29;20412;-90
2022/12/18 00:14:07;;;;;;;48.30;29.10;;;-1.10;99.90;;;;;;4933759;29;20039;-88
2022/12/18 00:16:35;;;;;;;48.53;31.60;;;-1.20;99.90;;;;;;4951768;28;20043;-89
2022/12/18 00:19:01;;;;;;;45.07;28.67;;;-1.10;99.90;;;;;;4952529;29;20027;-88
2022/12/18 00:21:28;;;;;;;43.47;26.87;;;-1.10;99.90;;;;;;4952980;29;20027;-90
2022/12/18 00:23:54;;;;;;;47.77;29.70;;;-1.00;99.90;;;;;;4966931;28;20058;-90
2022/12/18 00:26:28;;;;;;;48.83;28.60;;;-1.10;99.90;;;;;;4956755;28;20397;-89
2022/12/18 00:28:55;;;;;;;44.03;26.33;;;-1.00;99.90;;;;;;4956046;29;20039;-89
2022/12/18 00:31:23;;;;;;;39.90;25.77;;;-1.10;99.90;;;;;;4956123;28;20047;-89
2022/12/18 00:33:49;;;;;;;41.17;23.73;;;-1.20;99.90;;;;;;4955463;29;20027;-89
2022/12/18 00:36:17;;;;;;;41.87;25.97;;;-1.50;99.90;;;;;;4955107;29;20042;-90
2022/12/18 00:38:43;;;;;;;35.87;23.63;;;-1.60;99.90;;;;;;4957261;29;20035;-89
2022/12/18 00:41:10;;;;;;;39.43;26.20;;;-1.70;99.90;;;;;;4954089;29;20455;-90
2022/12/18 00:43:38;;;;;;;37.03;24.53;;;-1.70;99.90;;;;;;4954215;29;20519;-89
2022/12/18 00:46:04;;;;;;;35.07;25.20;;;-1.70;99.90;;;;;;4960838;28;20043;-89
2022/12/18 00:48:30;;;;;;;43.00;25.97;;;-1.70;99.90;;;;;;4963937;29;20039;-90
2022/12/18 00:50:56;;;;;;;28.97;20.60;;;-1.70;99.90;;;;;;4965343;29;20046;-89
2022/12/18 00:53:22;;;;;;;34.37;24.33;;;-1.80;99.90;;;;;;4963791;29;20457;-91
2022/12/18 00:55:49;;;;;;;38.87;25.23;;;-1.80;99.90;;;;;;4949583;29;20039;-90
2022/12/18 00:58:15;;;;;;;34.20;25.40;;;-1.80;99.90;;;;;;4963753;29;20036;-91
2022/12/18 01:00:42;;;;;;;35.17;24.67;;;-1.80;99.90;;;;;;4960683;28;20047;-90
2022/12/18 01:03:09;;;;;;;32.57;23.77;;;-1.80;99.90;;;;;;4955520;28;20035;-90
2022/12/18 01:05:39;;;;;;;40.43;27.50;;;-1.80;99.90;;;;;;4955579;29;20050;-92
2022/12/18 01:08:05;;;;;;;32.25;23.15;;;-1.80;99.90;;;;;;4956853;29;20035;-91
2022/12/18 01:10:31;;;;;;;27.47;20.47;;;-1.80;99.90;;;;;;4954614;29;20035;-90
2022/12/18 01:12:57;;;;;;;34.17;24.73;;;-1.80;99.90;;;;;;4954687;29;20039;-91
2022/12/18 01:15:23;;;;;;;37.17;26.33;;;-1.80;99.90;;;;;;4955477;28;20035;-92
2022/12/18 01:17:51;;;;;;;27.73;19.57;;;-1.80;99.90;;;;;;4956674;29;20453;-91
2022/12/18 01:20:17;;;;;;;31.50;22.70;;;-1.70;99.90;;;;;;4952842;29;20035;-90
2022/12/18 01:22:44;;;;;;;42.10;26.37;;;-1.80;99.90;;;;;;4955171;29;20050;-91
2022/12/18 01:25:10;;;;;;;42.27;27.00;;;-1.90;99.90;;;;;;4936355;29;20051;-92
2022/12/18 01:27:36;;;;;;;37.73;26.13;;;-2.00;99.90;;;;;;4961714;28;20036;-92
2022/12/18 01:30:02;;;;;;;37.10;22.37;;;-2.00;99.90;;;;;;4948652;28;20031;-84
2022/12/18 01:32:32;;;;;;;32.63;23.93;;;-1.90;99.90;;;;;;4955621;29;20030;-90
2022/12/18 01:34:58;;;;;;;37.77;23.93;;;-1.90;99.90;;;;;;4955863;28;20050;-90
2022/12/18 01:37:24;;;;;;;40.07;28.17;;;-1.90;99.90;;;;;;4952698;28;20031;-90
2022/12/18 01:39:52;;;;;;;38.57;27.97;;;-1.90;99.90;;;;;;4955689;29;20027;-91
2022/12/18 01:42:18;;;;;;;23.40;20.03;;;-1.90;99.90;;;;;;4940324;29;20035;-90
2022/12/18 01:44:59;;;;;;;31.00;23.13;;;-1.90;99.90;;;;;;4955979;29;20400;-91
2022/12/18 01:47:50;;;;;;;40.80;27.67;;;-2.00;99.90;;;;;;4955539;28;20035;-91
2022/12/18 01:50:31;;;;;;;41.27;28.27;;;-2.00;99.90;;;;;;4956040;29;20042;-91
2022/12/18 01:53:05;;;;;;;39.00;27.40;;;-2.00;99.90;;;;;;4939893;29;20503;-90
2022/12/18 01:55:36;;;;;;;42.40;27.90;;;-1.90;99.90;;;;;;4948756;29;20027;-90
2022/12/18 01:58:02;;;;;;;31.20;22.85;;;-1.90;99.90;;;;;;4931309;29;20039;-90
2022/12/18 02:00:28;;;;;;;45.23;28.83;;;-1.90;99.90;;;;;;4960593;28;20031;-90
2022/12/18 02:02:55;;;;;;;36.33;26.37;;;-1.80;99.90;;;;;;4954929;29;20031;-90
2022/12/18 02:05:33;;;;;;;23.50;19.40;;;-1.90;99.90;;;;;;4955708;29;20054;-90
2022/12/18 02:08:20;;;;;;;39.50;27.73;;;-1.90;99.90;;;;;;4956190;29;20039;-92
2022/12/18 02:10:58;;;;;;;39.37;25.93;;;-1.80;99.90;;;;;;4954144;29;20027;-92
2022/12/18 02:14:06;;;;;;;39.43;28.53;;;-1.80;99.90;;;;;;4934684;29;20066;-91
2022/12/18 02:16:47;;;;;;;38.20;27.27;;;-1.90;99.90;;;;;;4909581;29;20401;-90
2022/12/18 02:19:32;;;;;;;;;;;-1.80;99.90;;;;;;4915787;29;20379;-91
2022/12/18 02:22:26;;;;;;;40.17;26.10;;;-1.70;99.90;;;;;;4924164;29;19911;-91
2022/12/18 02:25:15;;;;;;;46.07;29.10;;;-1.70;99.90;;;;;;4898941;29;20072;-90
2022/12/18 02:27:42;;;;;;;32.33;23.20;;;-1.80;99.90;;;;;;4914059;29;20044;-89
2022/12/18 02:30:08;;;;;;;40.67;23.93;;;-1.70;99.90;;;;;;4892803;29;20076;-91
2022/12/18 02:32:37;;;;;;;39.63;26.97;;;-1.70;99.90;;;;;;4893983;29;20409;-90
2022/12/18 02:35:05;;;;;;;44.47;27.70;;;-1.80;99.90;;;;;;4878901;29;20052;-92
2022/12/18 02:37:31;;;;;;;47.50;30.17;;;-1.70;99.90;;;;;;4891854;29;20466;-90
2022/12/18 02:39:57;;;;;;;42.37;28.70;;;-1.60;99.90;;;;;;4900130;29;20044;-91
2022/12/18 02:42:23;;;;;;;34.40;25.90;;;-1.30;99.90;;;;;;4896904;29;20067;-91
2022/12/18 02:44:50;;;;;;;25.30;19.83;;;-1.30;99.90;;;;;;4900046;29;20048;-90
2022/12/18 02:47:21;;;;;;;42.47;26.30;;;-1.50;99.90;;;;;;4922348;28;20088;-91
2022/12/18 02:49:47;;;;;;;;;;;-1.70;99.90;;;;;;4952244;28;20047;-91
2022/12/18 02:52:28;;;;;;;39.53;25.43;;;-1.70;99.90;;;;;;4952990;29;20362;-91
2022/12/18 02:55:12;;;;;;;38.72;20.38;;;-1.70;99.90;;;;;;4955356;29;20393;-91
2022/12/18 02:57:52;;;;;;;28.73;21.57;;;-1.70;99.90;;;;;;4952821;29;20027;-91
2022/12/18 03:00:20;;;;;;;38.60;25.17;;;-1.80;99.90;;;;;;4951159;28;20039;-92
2022/12/18 03:03:01;;;;;;;28.07;19.33;;;-1.80;99.90;;;;;;4946626;28;20031;-91
2022/12/18 03:05:30;;;;;;;;;;;-1.70;99.90;;;;;;4951912;29;20043;-91
2022/12/18 03:07:58;;;;;;;32.67;24.03;;;-1.70;99.90;;;;;;4954015;28;20379;-91
2022/12/18 03:10:27;;;;;;;39.60;26.00;;;-1.70;99.90;;;;;;4948977;29;20058;-92
2022/12/18 03:13:10;;;;;;;40.57;26.37;;;-1.70;99.90;;;;;;4953031;29;20043;-91
2022/12/18 03:15:45;;;;;;;36.20;26.27;;;-1.70;99.90;;;;;;4955921;28;20489;-92
2022/12/18 03:18:21;;;;;;;17.50;15.47;;;-1.60;99.90;;;;;;4950820;29;20036;-91
2022/12/18 03:20:47;;;;;;;40.20;26.00;;;-1.50;99.90;;;;;;4957807;29;20251;-91
2022/12/18 03:23:18;;;;;;;39.90;27.60;;;-1.60;99.90;;;;;;4955232;28;20035;-91
2022/12/18 03:25:45;;;;;;;37.37;22.77;;;-1.70;99.90;;;;;;4946740;29;20046;-90
2022/12/18 03:28:13;;;;;;;28.20;21.60;;;-1.70;99.90;;;;;;4959098;29;20035;-91
2022/12/18 03:30:41;;;;;;;28.17;22.17;;;-1.70;99.90;;;;;;4958623;28;20035;-90
2022/12/18 03:33:31;;;;;;;27.73;21.07;;;-1.70;99.90;;;;;;4942675;28;20051;-90
2022/12/18 03:35:57;;;;;;;21.48;15.43;;;-1.70;99.90;;;;;;4962077;28;20035;-92
2022/12/18 03:38:23;;;;;;;28.13;22.60;;;-1.70;99.90;;;;;;4943231;29;20050;-91
2022/12/18 03:41:07;;;;;;;15.30;13.77;;;-1.80;99.90;;;;;;4959712;29;20034;-91
2022/12/18 03:43:50;;;;;;;25.67;20.90;;;-1.70;99.90;;;;;;4957988;29;20512;-90
2022/12/18 03:46:32;;;;;;;18.60;16.07;;;-1.70;99.90;;;;;;4936649;28;20044;-90
2022/12/18 03:49:06;;;;;;;27.37;20.27;;;-1.60;99.90;;;;;;4954159;29;20047;-91
2022/12/18 03:51:40;;;;;;;36.07;24.60;;;-1.60;99.90;;;;;;4958937;29;20027;-90
2022/12/18 03:54:07;;;;;;;27.47;20.73;;;-1.60;99.90;;;;;;4954187;29;20045;-90
2022/12/18 03:56:42;;;;;;;24.80;21.13;;;-1.60;99.90;;;;;;4946069;29;20113;-89
2022/12/18 03:59:08;;;;;;;43.03;23.30;;;-1.50;99.90;;;;;;4962449;28;20046;-90
2022/12/18 04:01:36;;;;;;;29.93;22.80;;;-1.50;99.90;;;;;;4940418;28;20027;-90
2022/12/18 04:04:03;;;;;;;38.37;25.67;;;-1.50;99.90;;;;;;4936462;29;20366;-90
2022/12/18 04:06:29;;;;;;;22.80;16.70;;;-1.50;99.90;;;;;;4955507;29;20039;-90
2022/12/18 04:08:55;;;;;;;39.33;25.07;;;-1.50;99.90;;;;;;4952546;28;20023;-89
2022/12/18 04:11:21;;;;;;;40.90;26.03;;;-1.40;99.90;;;;;;4953675;29;20038;-90
2022/12/18 04:13:47;;;;;;;40.20;27.93;;;-1.40;99.90;;;;;;4953003;29;20054;-90
2022/12/18 04:16:13;;;;;;;45.13;28.27;;;-1.30;99.90;;;;;;4952391;28;20616;-90
2022/12/18 04:18:39;;;;;;;40.07;27.07;;;-1.20;99.90;;;;;;4953608;29;20035;-89
2022/12/18 04:21:05;;;;;;;28.83;21.27;;;-1.30;99.90;;;;;;4954182;29;20039;-90
2022/12/18 04:23:31;;;;;;;25.60;19.73;;;-1.30;99.90;;;;;;4950381;29;20038;-90
2022/12/18 04:25:57;;;;;;;36.73;26.80;;;-1.30;99.90;;;;;;4937702;29;20054;-90
2022/12/18 04:28:24;;;;;;;34.00;23.60;;;-1.30;99.90;;;;;;4953644;29;20031;-91
2022/12/18 04:30:50;;;;;;;36.60;24.27;;;-1.30;99.90;;;;;;4927791;28;20043;-90
2022/12/18 04:33:16;;;;;;;28.73;21.10;;;-1.30;99.90;;;;;;4934498;29;20032;-90
2022/12/18 04:35:42;;;;;;;27.77;21.47;;;-1.30;99.90;;;;;;4927788;29;20482;-89
2022/12/18 04:38:09;;;;;;;16.60;15.17;;;-1.20;99.90;;;;;;4933219;29;20059;-90
2022/12/18 04:40:36;;;;;;;15.13;13.90;;;-1.20;99.90;;;;;;4933659;29;20027;-90
2022/12/18 04:43:02;;;;;;;36.20;25.37;;;-1.20;99.90;;;;;;4931570;29;20043;-89
2022/12/18 04:45:30;;;;;;;16.13;14.40;;;-1.20;99.90;;;;;;4913624;28;20052;-90
2022/12/18 04:47:58;;;;;;;36.40;26.27;;;-1.20;99.90;;;;;;4935045;29;20047;-89
2022/12/18 04:50:24;;;;;;;40.40;28.37;;;-1.20;99.90;;;;;;4931478;29;20051;-91
2022/12/18 04:52:50;;;;;;;47.13;28.60;;;-1.20;99.90;;;;;;4918086;29;20035;-90
2022/12/18 04:55:16;;;;;;;31.70;24.13;;;-1.20;99.90;;;;;;4917487;29;20044;-91
2022/12/18 04:57:42;;;;;;;46.83;27.67;;;-1.10;99.90;;;;;;4932805;29;20399;-89
2022/12/18 05:00:09;;;;;;;34.07;20.60;;;-1.20;99.90;;;;;;4929335;28;20036;-91
2022/12/18 05:02:36;;;;;;;41.57;28.10;;;-1.10;99.90;;;;;;4929696;29;20046;-91
2022/12/18 05:05:02;;;;;;;41.33;24.67;;;-1.10;99.90;;;;;;4933564;29;20048;-89
2022/12/18 05:07:28;;;;;;;48.57;29.33;;;-1.00;99.90;;;;;;4932783;29;20028;-91
2022/12/18 05:09:54;;;;;;;36.63;25.90;;;-1.00;99.90;;;;;;4932719;29;20047;-89
2022/12/18 05:12:20;;;;;;;39.77;27.43;;;-1.00;99.90;;;;;;4932647;29;20040;-92
2022/12/18 05:14:46;;;;;;;30.60;22.50;;;-0.90;99.90;;;;;;4937281;29;20413;-91
2022/12/18 05:17:13;;;;;;;42.47;29.73;;;-0.90;99.90;;;;;;4934756;28;20028;-91
2022/12/18 05:19:39;;;;;;;45.57;29.40;;;-0.80;99.90;;;;;;4918806;29;20043;-91
2022/12/18 05:22:08;;;;;;;42.40;30.57;;;-0.80;99.90;;;;;;4936212;29;20036;-92
2022/12/18 05:24:34;;;;;;;43.00;27.53;;;-0.80;99.90;;;;;;4936396;29;20044;-92
2022/12/18 05:27:00;;;;;;;36.17;26.90;;;-0.80;99.90;;;;;;4937145;29;20491;-90
2022/12/18 05:29:26;;;;;;;42.80;29.87;;;-0.70;99.90;;;;;;4937290;29;20027;-90
2022/12/18 05:31:52;;;;;;;27.30;22.10;;;-0.60;99.90;;;;;;4934408;29;20043;-91
2022/12/18 05:34:18;;;;;;;38.67;27.00;;;-0.60;99.90;;;;;;4937305;29;20035;-91
2022/12/18 05:36:44;;;;;;;16.27;14.77;;;-0.70;99.90;;;;;;4936566;29;20407;-91
2022/12/18 05:39:10;;;;;;;42.00;28.87;;;-0.70;99.90;;;;;;4935648;29;20039;-91
2022/12/18 05:41:36;;;;;;;37.10;27.80;;;-0.60;99.90;;;;;;4936229;29;20050;-91
2022/12/18 05:44:03;;;;;;;28.43;19.10;;;-0.60;99.90;;;;;;4933362;29;20046;-91
2022/12/18 05:46:29;;;;;;;39.00;29.10;;;-0.60;99.90;;;;;;4932003;28;20047;-91
2022/12/18 05:48:55;;;;;;;38.80;23.70;;;-0.60;99.90;;;;;;4917816;29;20489;-91
2022/12/18 05:51:21;;;;;;;36.33;27.73;;;-0.60;99.90;;;;;;4919552;29;20054;-92
2022/12/18 05:53:48;;;;;;;36.60;25.67;;;-0.60;99.90;;;;;;4935487;29;20036;-91
2022/12/18 05:56:18;;;;;;;39.07;26.90;;;-0.60;99.90;;;;;;4919470;29;20051;-91
2022/12/18 05:58:44;;;;;;;22.98;16.75;;;-0.60;99.90;;;;;;4936056;29;20039;-91
2022/12/18 06:01:15;;;;;;;43.17;29.03;;;-0.50;99.90;;;;;;4936572;28;20393;-90
2022/12/18 06:03:42;;;;;;;40.83;28.50;;;-0.50;99.90;;;;;;4936965;29;20024;-90
2022/12/18 06:06:18;;;;;;;34.10;26.30;;;-0.40;99.90;;;;;;4934878;29;20055;-92
2022/12/18 06:08:45;;;;;;;29.97;22.50;;;-0.40;99.90;;;;;;4936862;29;20385;-91
2022/12/18 06:11:11;;;;;;;159.33;32.47;;;-0.40;99.90;;;;;;4935305;29;20035;-91
2022/12/18 06:13:37;;;;;;;44.33;29.30;;;-0.40;99.90;;;;;;4935287;29;20031;-90
2022/12/18 06:16:04;;;;;;;48.40;27.77;;;-0.30;99.90;;;;;;4934890;28;20047;-91
2022/12/18 06:18:31;;;;;;;43.73;28.90;;;-0.30;99.90;;;;;;4915290;29;20042;-90
2022/12/18 06:20:58;;;;;;;36.97;26.90;;;-0.40;99.90;;;;;;4932161;29;20485;-91
2022/12/18 06:23:24;;;;;;;42.83;28.77;;;-0.30;99.90;;;;;;4936038;29;20040;-91
2022/12/18 06:25:50;;;;;;;30.10;19.63;;;-0.30;99.90;;;;;;4935180;29;20043;-90
2022/12/18 06:28:16;;;;;;;41.40;26.73;;;-0.30;99.90;;;;;;4925650;29;20032;-90
2022/12/18 06:30:46;;;;;;;32.90;22.53;;;-0.30;99.90;;;;;;4909271;28;20055;-91
2022/12/18 06:33:12;;;;;;;41.37;26.97;;;-0.30;99.90;;;;;;4934064;29;20473;-90
2022/12/18 06:35:38;;;;;;;44.87;28.53;;;-0.30;99.90;;;;;;4932722;29;20036;-89
2022/12/18 06:38:04;;;;;;;31.40;22.23;;;-0.30;99.90;;;;;;4935909;29;20062;-91
2022/12/18 06:40:30;;;;;;;36.03;26.37;;;-0.30;99.90;;;;;;4933968;29;20043;-93
2022/12/18 06:42:56;;;;;;;43.37;28.50;;;-0.40;99.90;;;;;;4933324;29;20040;-89
2022/12/18 06:45:22;;;;;;;40.40;25.63;;;-0.30;99.90;;;;;;4930433;28;21029;-87
2022/12/18 06:47:48;;;;;;;41.83;28.10;;;-0.30;99.90;;;;;;4928921;29;20058;-87
2022/12/18 06:50:15;;;;;;;43.30;28.30;;;-0.30;99.90;;;;;;4936688;29;20047;-88
2022/12/18 06:52:42;;;;;;;35.17;25.57;;;-0.30;99.90;;;;;;4945626;29;20036;-89
2022/12/18 06:55:08;;;;;;;38.17;28.17;;;-0.30;99.90;;;;;;4936857;29;20040;-87
2022/12/18 06:57:34;;;;;;;44.17;29.00;;;-0.20;99.90;;;;;;4956798;28;20043;-90
2022/12/18 07:00:00;;;;;;;36.03;27.20;;;-0.20;99.90;;;;;;4938755;29;20040;-88
2022/12/18 07:02:27;;;;;;;30.80;22.47;;;-0.20;99.90;;;;;;4938775;28;20032;-91
2022/12/18 07:04:53;;;;;;;33.97;24.97;;;-0.20;99.90;;;;;;4935591;29;20706;-90
2022/12/18 07:07:19;;;;;;;44.33;29.27;;;-0.20;99.90;;;;;;4933789;29;20500;-92
2022/12/18 07:09:45;;;;;;;33.17;23.27;;;-0.20;99.90;;;;;;4914574;29;20035;-90
2022/12/18 07:12:11;;;;;;;30.20;23.20;;;-0.20;99.90;;;;;;4934403;29;20046;-88
2022/12/18 07:14:37;;;;;;;36.10;25.30;;;-0.20;99.90;;;;;;4934603;29;20036;-88
2022/12/18 07:17:03;;;;;;;35.17;24.13;;;-0.10;99.90;;;;;;4935444;28;20040;-90
2022/12/18 07:19:29;;;;;;;37.17;24.67;;;0.00;99.90;;;;;;4928500;29;20042;-88
2022/12/18 07:21:55;;;;;;;37.73;27.30;;;-0.10;99.90;;;;;;4933875;29;20038;-90
2022/12/18 07:24:21;;;;;;;30.77;24.20;;;-0.10;99.90;;;;;;4926637;29;20035;-88
2022/12/18 07:26:48;;;;;;;42.97;27.10;;;-0.10;99.90;;;;;;4927172;29;20052;-90
2022/12/18 07:29:14;;;;;;;32.10;22.40;;;-0.10;99.90;;;;;;4933899;29;20036;-91
2022/12/18 07:31:40;;;;;;;36.70;26.00;;;0.00;99.90;;;;;;4929083;28;20046;-92
2022/12/18 07:34:11;;;;;;;33.10;23.97;;;0.00;99.90;;;;;;4931193;29;20066;-88
2022/12/18 07:36:37;;;;;;;41.67;27.13;;;0.00;99.90;;;;;;4934087;29;20039;-91
2022/12/18 07:39:04;;;;;;;34.00;24.97;;;0.00;99.90;;;;;;4933681;29;20031;-90
2022/12/18 07:41:30;;;;;;;40.13;23.73;;;0.00;99.90;;;;;;4934386;29;20481;-91
2022/12/18 07:43:56;;;;;;;34.43;23.50;;;0.00;99.90;;;;;;4935736;29;20040;-90
2022/12/18 07:46:22;;;;;;;30.40;24.23;;;0.00;99.90;;;;;;4935943;28;20406;-89
2022/12/18 07:48:48;;;;;;;34.70;24.10;;;0.00;99.90;;;;;;4937961;29;20074;-89
2022/12/18 07:51:14;;;;;;;27.17;19.93;;;0.00;99.90;;;;;;4938773;29;20031;-89
2022/12/18 07:53:40;;;;;;;32.00;24.17;;;0.10;99.90;;;;;;4954010;29;20027;-90
2022/12/18 07:56:08;;;;;;;37.30;25.50;;;0.00;99.90;;;;;;4944429;29;20032;-92
2022/12/18 07:58:35;;;;;;;25.07;18.33;;;0.00;99.90;;;;;;4934319;29;20401;-88
2022/12/18 08:01:08;;;;;;;36.50;24.73;;;0.00;99.90;;;;;;4933165;28;20039;-89
2022/12/18 08:03:35;;;;;;;34.03;22.23;;;0.10;99.90;;;;;;4915317;29;20043;-91
2022/12/18 08:06:02;;;;;;;33.73;24.43;;;0.10;99.90;;;;;;4940068;29;20047;-88
2022/12/18 08:08:28;;;;;;;26.70;19.13;;;0.10;99.90;;;;;;4965369;28;20035;-87
2022/12/18 08:10:55;;;;;;;31.83;19.33;;;0.00;99.90;;;;;;4918083;29;20051;-87
2022/12/18 08:13:21;;;;;;;17.57;14.43;;;0.00;99.90;;;;;;4936753;29;20047;-85
2022/12/18 08:15:55;;;;;;;28.63;19.93;;;0.00;99.90;;;;;;4935368;28;20035;-88
2022/12/18 08:18:21;;;;;;;41.27;26.40;;;0.00;99.90;;;;;;4932078;29;20039;-88
2022/12/18 08:20:48;;;;;;;38.97;25.90;;;0.10;99.90;;;;;;4943661;29;20028;-92
2022/12/18 08:23:14;;;;;;;37.30;24.20;;;0.20;99.90;;;;;;4942248;29;20027;-91
2022/12/18 08:25:40;;;;;;;40.70;24.37;;;0.20;99.90;;;;;;4946740;29;20039;-92
2022/12/18 08:28:06;;;;;;;22.80;17.13;;;0.20;99.90;;;;;;4943673;29;20027;-92
2022/12/18 08:30:32;;;;;;;32.23;23.07;;;0.20;99.90;;;;;;4941194;28;20121;-91
2022/12/18 08:32:58;;;;;;;39.30;27.13;;;0.20;99.90;;;;;;4925634;29;20516;-91
2022/12/18 08:35:24;;;;;;;33.90;22.93;;;0.20;99.90;;;;;;4932620;29;20040;-88
2022/12/18 08:37:50;;;;;;;92.03;33.03;;;0.20;99.90;;;;;;4946826;29;20039;-88
2022/12/18 08:40:16;;;;;;;25.87;19.90;;;0.30;99.90;;;;;;4937975;29;20035;-90
2022/12/18 08:45:27;;;;;;;28.57;19.03;;;0.30;99.90;;;;;;4942395;28;20035;-89
2022/12/18 08:47:54;;;;;;;39.67;27.13;;;0.40;99.90;;;;;;4940999;29;20035;-86
2022/12/18 08:50:20;;;;;;;54.37;30.67;;;0.40;99.90;;;;;;4939732;29;20055;-93
2022/12/18 08:52:46;;;;;;;47.67;27.57;;;0.40;99.90;;;;;;4918748;29;20504;-92
2022/12/18 08:55:12;;;;;;;59.63;33.43;;;0.50;99.90;;;;;;4908843;29;20035;-91
2022/12/18 08:57:38;;;;;;;48.27;29.83;;;0.50;99.90;;;;;;4941086;29;20024;-88
2022/12/18 09:00:05;;;;;;;45.20;27.93;;;0.60;99.90;;;;;;4940017;28;20059;-89
2022/12/18 09:02:31;;;;;;;58.93;34.50;;;0.60;99.90;;;;;;4935287;29;20043;-91
2022/12/18 09:04:57;;;;;;;55.47;33.17;;;0.70;99.90;;;;;;4957219;29;20044;-92
2022/12/18 09:07:23;;;;;;;55.80;32.43;;;0.60;99.90;;;;;;4928779;29;20051;-89
2022/12/18 09:09:49;;;;;;;50.57;30.00;;;0.70;99.90;;;;;;4917571;29;20040;-92
2022/12/18 09:12:15;;;;;;;54.20;26.40;;;0.70;99.90;;;;;;4938457;29;20035;-91
2022/12/18 09:14:42;;;;;;;39.03;27.53;;;0.70;99.90;;;;;;4941613;29;20461;-89
2022/12/18 09:17:08;;;;;;;45.30;27.33;;;0.70;99.90;;;;;;4939035;28;20066;-90
2022/12/18 09:19:34;;;;;;;53.60;29.40;;;0.70;99.90;;;;;;4941080;29;20389;-91
2022/12/18 09:22:00;;;;;;;49.97;29.10;;;0.80;99.90;;;;;;4941383;29;20117;-90
2022/12/18 09:24:26;;;;;;;51.30;30.63;;;0.80;99.90;;;;;;4939841;29;20047;-93
2022/12/18 09:26:55;;;;;;;48.10;28.67;;;0.80;99.90;;;;;;4956088;29;20396;-92
2022/12/18 09:29:21;;;;;;;46.80;29.90;;;0.90;99.90;;;;;;4931491;29;20051;-94
2022/12/18 09:31:49;;;;;;;35.27;25.37;;;0.90;99.90;;;;;;4946166;28;20067;-94
2022/12/18 09:34:16;;;;;;;25.20;22.17;;;1.00;99.90;;;;;;4940978;29;20036;-94
2022/12/18 09:36:42;;;;;;;31.27;23.60;;;1.00;99.90;;;;;;4951103;29;20042;-93
2022/12/18 09:39:08;;;;;;;39.90;26.97;;;1.00;99.90;;;;;;4959365;28;20028;-94
2022/12/18 09:41:40;;;;;;;35.27;22.60;;;1.10;99.90;;;;;;5331684;23;20048;-94
2022/12/18 09:44:32;;;;;;;28.80;22.10;;;1.10;99.90;;;;;;4929896;28;20032;-90
2022/12/18 09:47:06;;;;;;;27.13;21.83;;;1.10;99.90;;;;;;4950475;28;20051;-94
2022/12/18 09:49:34;;;;;;;35.80;24.37;;;1.10;99.90;;;;;;4953371;29;20032;-92
2022/12/18 09:52:08;;;;;;;32.70;24.30;;;1.10;99.90;;;;;;4951435;28;20087;-91
2022/12/18 09:54:41;;;;;;;28.13;23.20;;;1.20;99.90;;;;;;4879894;29;20040;-90
2022/12/18 09:57:10;;;;;;;22.87;19.27;;;1.20;99.90;;;;;;4930639;29;20059;-91
2022/12/18 09:59:38;;;;;;;20.70;16.73;;;1.20;99.90;;;;;;4900989;29;20040;-91
2022/12/18 10:02:19;;;;;;;31.13;24.70;;;1.20;99.90;;;;;;4918123;28;20032;-90
2022/12/18 10:04:49;;;;;;;22.13;19.80;;;1.30;99.90;;;;;;4918123;29;20056;-88
2022/12/18 10:07:39;;;;;;;18.43;16.67;;;1.30;99.90;;;;;;4901519;29;20800;-92
2022/12/18 10:10:32;;;;;;;38.27;28.97;;;1.30;99.90;;;;;;4924990;29;20036;-91
2022/12/18 10:13:01;;;;;;;39.90;31.77;;;1.40;99.90;;;;;;4926453;29;20032;-92
2022/12/18 10:15:39;;;;;;;32.23;26.13;;;1.40;99.90;;;;;;4914575;28;20403;-92
2022/12/18 10:18:24;;;;;;;36.73;28.43;;;1.50;99.90;;;;;;4947959;29;20455;-92
2022/12/18 10:20:52;;;;;;;33.23;22.80;;;1.50;99.90;;;;;;4944043;29;20039;-92
2022/12/18 10:23:21;;;;;;;46.83;32.07;;;1.50;99.90;;;;;;4925946;29;20028;-92
2022/12/18 10:26:17;;;;;;;30.90;25.33;;;1.60;99.90;;;;;;4929974;29;20029;-93
2022/12/18 10:28:43;;;;;;;43.63;30.20;;;1.60;99.90;;;;;;4909564;29;20573;-93
2022/12/18 10:31:27;;;;;;;29.67;23.87;;;1.70;99.90;;;;;;4883749;29;20470;-93
2022/12/18 10:33:54;;;;;;;20.27;18.07;;;1.70;99.90;;;;;;4914328;29;20036;-93
2022/12/18 10:36:20;;;;;;;35.50;25.07;;;1.60;99.90;;;;;;4919541;29;20032;-93
2022/12/18 10:38:46;;;;;;;39.33;29.53;;;1.60;99.90;;;;;;4920220;29;20040;-93
2022/12/18 10:41:18;;;;;;;35.13;25.17;;;1.70;99.90;;;;;;4892846;29;20478;-94
2022/12/18 10:43:45;;;;;;;48.43;31.03;;;1.60;99.90;;;;;;4926297;29;20047;-94
2022/12/18 10:46:17;;;;;;;40.83;29.23;;;1.70;99.90;;;;;;4919910;29;20177;-90
2022/12/18 10:48:56;;;;;;;44.30;26.17;;;1.70;99.90;;;;;;4922648;29;20036;-93
2022/12/18 10:51:22;;;;;;;25.70;18.83;;;1.70;99.90;;;;;;4947738;29;20511;-94
2022/12/18 10:53:59;;;;;;;34.80;26.70;;;1.70;99.90;;;;;;4911193;29;20036;-93
2022/12/18 10:56:27;;;;;;;37.20;28.37;;;1.70;99.90;;;;;;4903726;29;20036;-92
2022/12/18 10:59:01;;;;;;;40.00;27.00;;;1.90;99.90;;;;;;4892382;29;20134;-92
2022/12/18 11:01:28;;;;;;;42.87;31.97;;;1.80;99.90;;;;;;4907506;29;20089;-93
2022/12/18 11:03:54;;;;;;;69.90;45.60;;;1.80;99.90;;;;;;4922231;29;20032;-92
2022/12/18 11:06:22;;;;;;;57.70;39.63;;;1.90;99.90;;;;;;4922401;29;20051;-93
2022/12/18 11:09:00;;;;;;;92.43;55.77;;;2.00;99.90;;;;;;4919809;29;20040;-93
2022/12/18 11:11:26;;;;;;;92.60;50.97;;;2.00;99.90;;;;;;4933786;29;20024;-93
2022/12/18 11:14:01;;;;;;;105.93;55.43;;;2.00;99.90;;;;;;4933339;29;20035;-93
2022/12/18 11:16:28;;;;;;;85.30;45.57;;;2.00;99.90;;;;;;4927532;28;20035;-93
2022/12/18 11:18:54;;;;;;;67.37;40.63;;;2.10;99.90;;;;;;4952725;29;20050;-93
2022/12/18 11:21:20;;;;;;;82.87;49.17;;;2.10;99.90;;;;;;4952486;29;20031;-93
2022/12/18 11:23:50;;;;;;;101.57;38.03;;;2.20;99.90;;;;;;4952203;28;20044;-94
2022/12/18 11:26:17;;;;;;;76.65;45.92;;;2.30;99.90;;;;;;4936982;29;20051;-93
2022/12/18 11:28:50;;;;;;;71.17;41.80;;;2.30;99.90;;;;;;4953796;29;20032;-93
2022/12/18 11:31:25;;;;;;;59.20;35.50;;;2.40;99.90;;;;;;4938167;28;20046;-93
2022/12/18 11:33:54;;;;;;;51.80;33.40;;;2.40;99.90;;;;;;4938411;29;20024;-93
2022/12/18 11:36:20;;;;;;;89.30;44.17;;;2.40;99.90;;;;;;4942943;29;20485;-93
2022/12/18 11:38:46;;;;;;;110.97;59.60;;;2.40;99.90;;;;;;4925413;29;20032;-93
2022/12/18 11:41:19;;;;;;;111.07;64.77;;;2.50;99.90;;;;;;4926129;29;20028;-92
2022/12/18 11:43:57;;;;;;;97.20;55.50;;;2.50;99.90;;;;;;4941731;29;20055;-93
2022/12/18 11:46:32;;;;;;;138.67;73.67;;;2.60;99.90;;;;;;4939926;28;20051;-92
2022/12/18 11:49:12;;;;;;;69.57;38.70;;;2.60;99.90;;;;;;4927391;29;20027;-94
2022/12/18 11:51:53;;;;;;;127.10;61.70;;;2.70;99.90;;;;;;4940255;29;20035;-93
2022/12/18 11:54:19;;;;;;;98.90;55.50;;;2.80;99.90;;;;;;4929943;29;20028;-93
2022/12/18 11:57:08;;;;;;;64.37;40.40;;;2.80;99.90;;;;;;4944134;29;20028;-93
2022/12/18 11:59:47;;;;;;;56.10;37.87;;;2.90;99.90;;;;;;4945983;28;20048;-93
2022/12/18 12:02:41;;;;;;;74.23;42.40;;;2.90;99.90;;;;;;4960163;28;20401;-93
2022/12/18 12:05:30;;;;;;;36.70;25.77;;;2.90;99.90;;;;;;4959252;29;20036;-92
2022/12/18 12:07:59;;;;;;;46.93;30.00;;;2.90;99.90;;;;;;4942236;29;20486;-94
2022/12/18 12:10:52;;;;;;;63.00;37.90;;;3.00;99.90;;;;;;4947189;29;20035;-92
2022/12/18 12:13:24;;;;;;;56.97;32.23;;;3.00;99.90;;;;;;4952699;28;20032;-93
2022/12/18 12:16:15;;;;;;;76.17;40.67;;;3.10;99.90;;;;;;4906438;29;20032;-93
2022/12/18 12:18:46;;;;;;;69.27;42.47;;;3.10;99.90;;;;;;4919019;29;20028;-94
2022/12/18 12:21:27;;;;;;;72.07;40.03;;;3.10;99.90;;;;;;4936196;29;20028;-93
2022/12/18 12:24:19;;;;;;;85.73;44.97;;;3.10;99.90;;;;;;4939630;29;20043;-93
2022/12/18 12:27:08;;;;;;;44.50;32.20;;;3.20;99.90;;;;;;4936665;29;20477;-93
2022/12/18 12:30:02;;;;;;;64.60;39.50;;;3.20;99.90;;;;;;4965590;28;20028;-92
2022/12/18 12:32:53;;;;;;;59.43;37.87;;;3.20;99.90;;;;;;4932224;29;20032;-93
2022/12/18 12:35:19;;;;;;;59.63;39.58;;;3.20;99.90;;;;;;4966876;28;20042;-92
2022/12/18 12:38:00;;;;;;;121.67;64.37;;;3.30;99.90;;;;;;4936222;29;20035;-91
2022/12/18 12:40:27;;;;;;;119.85;65.82;;;3.30;99.90;;;;;;4936085;29;20044;-91
2022/12/18 12:43:15;;;;;;;84.37;52.27;;;3.30;99.90;;;;;;4952704;29;20039;-92
2022/12/18 12:46:10;;;;;;;69.87;44.63;;;3.40;99.90;;;;;;4935313;28;20034;-91
2022/12/18 12:48:39;;;;;;;83.13;50.80;;;3.40;99.90;;;;;;4937329;29;20040;-92